This is the latest recevied weather packets stored in our database for station/object KD0JCP-10. If no packets are shown the sender has not sent any weather packets the latest 10 day(s).
| Time | Temp. | Humidity | Pressure | Rain* | Wind** | Luminosity | Snow |
|---|---|---|---|---|---|---|---|
| 1777649485 | 10° C | 55% | 1021.7 hPa | 0 mm | - | - | - |
| 1777649185 | 9.44° C | 56% | 1021.8 hPa | 0 mm | - | - | - |
| 1777648885 | 9.44° C | 57% | 1021.7 hPa | 0 mm | - | - | - |
| 1777648285 | 8.89° C | 58% | 1021.7 hPa | 0 mm | - | - | - |
| 1777647985 | 8.89° C | 58% | 1021.7 hPa | 0 mm | - | - | - |
| 1777647685 | 8.89° C | 57% | 1021.7 hPa | 0 mm | - | - | - |
| 1777647385 | 9.44° C | 56% | 1021.5 hPa | 0 mm | - | - | - |
| 1777647085 | 9.44° C | 57% | 1021.7 hPa | 0 mm | - | - | - |
| 1777646785 | 9.44° C | 57% | 1021.6 hPa | 0 mm | - | - | - |
| 1777646485 | 9.44° C | 58% | 1021.5 hPa | 0 mm | - | - | - |
| 1777646185 | 8.89° C | 58% | 1021.5 hPa | 0 mm | - | - | - |
| 1777645885 | 8.33° C | 59% | 1021.6 hPa | 0 mm | - | - | - |
| 1777645585 | 7.78° C | 64% | 1021.5 hPa | 0 mm | - | - | - |
| 1777645285 | 7.78° C | 63% | 1021.6 hPa | 0 mm | - | - | - |
| 1777644985 | 7.78° C | 63% | 1021.6 hPa | 0 mm | - | - | - |
| 1777644685 | 7.78° C | 63% | 1021.6 hPa | 0 mm | - | - | - |
| 1777644385 | 7.22° C | 64% | 1021.6 hPa | 0 mm | - | - | - |
| 1777644085 | 7.22° C | 63% | 1021.6 hPa | 0 mm | - | - | - |
| 1777643785 | 7.78° C | 62% | 1021.6 hPa | 0 mm | - | - | - |
| 1777643485 | 7.78° C | 61% | 1021.6 hPa | 0 mm | - | - | - |
| 1777643185 | 7.22° C | 64% | 1021.5 hPa | 0 mm | - | - | - |
| 1777642885 | 7.22° C | 65% | 1021.5 hPa | 0 mm | - | - | - |
| 1777642585 | 6.67° C | 67% | 1021.5 hPa | 0 mm | - | - | - |
| 1777642285 | 6.67° C | 66% | 1021.4 hPa | 0 mm | - | - | - |
| 1777641985 | 6.67° C | 67% | 1021.5 hPa | 0 mm | - | - | - |
* Rain latest hour (hover to see other rain measurements)
** Current wind speed in m/s (hover to see current wind gust speed)